< < Back
Terminal Aerodrome Forecast


Current Version              Previous Versions:   1  2  3  4  5  6  7  8  9  

Terminal Aerodrome Forecast

138
FTUS44 KBMX 280500
TAFMGM
TAF
KMGM 280525Z 2806/2906 31005KT P6SM SKC
     FM281500 03005KT P6SM SKC=



Latest METAR

573
SAUS80 KWBC 280700
MTRMGM
METAR KMGM 280653Z AUTO 34005KT 10SM CLR 02/M02 A3044 RMK AO2 SLP307
T00221017 FZRANO


USA.gov is the U.S. government's official web portal to all federal, state and local government web resources and services.